Decoded Metar for SBFZ (FORTALEZA in BRAZIL) (IATA:FOR) | Meteo·Mobile Aviation Weather
aviador You're here:

SBFZ Decoded Metar

FORTALEZA in BRAZIL
Report Time2018-09-23 12:00:00
UTC Time2018-09-23 11:54:21
Flight Rules vfr VFR
Wind090° at 19 kt
W.Decomp.*RWY 13: 18.0 kt HW 6.2 kt LCW
W.Rank090° ranks 1
Current wind is above 090° avg. (11.6)
Visibility9999 m
Phenomena:N/A
Clouds:Scattered 020 Hf
Expected CloudBase > 3,200 ft AGL from Temp-Dew spread
CeilingNone
Temp29°C (ISA +14)
Dew Point21°C (62% RH)
Heat Index31.3°C
AAT26.3°C
QNH1014 hPa
Density Alt2,001 ft
Elevation82 ft
Report Wrong Elevation
Raw Report
METAR SBFZ 231200Z 09019KT 9999 SCT020 29/21 Q1014=

Extra information for SBFZ:More info

Metar Taf Metar & Taf Last 4 Metars F.Rules Stats Wind Profile Meteogram Temp Stats Airport Information Weather charts Add Link Nearby VenuesMetar ALERT Operation Metar Decoded Social comments